Time;durP1;ratioP1;P1;durP2;ratioP2;P2;SDS_P1;SDS_P2;PMS_P1;PMS_P2;Temp;Humidity;BMP_temperature;BMP_pressure;BME280_temperature;BME280_humidity;BME280_pressure;Samples;Min_cycle;Max_cycle;Signal;HPM_P1;HPM_P2
2024/01/24 00:02:42;;;;;;;9.35;2.03;;;;;;;9.07;100.00;100747.41;5015973;28;20065;-73
2024/01/24 00:05:28;;;;;;;11.52;2.25;;;;;;;9.07;100.00;100729.81;5010862;28;20037;-72
2024/01/24 00:08:14;;;;;;;8.18;2.33;;;;;;;9.09;100.00;100740.28;4998487;28;20860;-72
2024/01/24 00:11:01;;;;;;;13.07;2.70;;;;;;;9.13;100.00;100727.81;5014993;28;20044;-76
2024/01/24 00:13:47;;;;;;;15.32;2.30;;;;;;;9.14;100.00;100697.88;5014839;28;20037;-73
2024/01/24 00:16:33;;;;;;;8.35;2.33;;;;;;;9.17;100.00;100692.44;5002724;28;20456;-73
2024/01/24 00:19:18;;;;;;;17.23;2.50;;;;;;;9.18;100.00;100697.66;5015703;28;20049;-73
2024/01/24 00:22:04;;;;;;;11.20;2.15;;;;;;;9.18;100.00;100718.81;5018932;28;20179;-72
2024/01/24 00:24:50;;;;;;;10.45;2.20;;;;;;;9.19;100.00;100699.38;5025791;28;20040;-72
2024/01/24 00:27:36;;;;;;;13.55;2.58;;;;;;;9.20;100.00;100698.44;5023790;28;20459;-72
2024/01/24 00:30:24;;;;;;;11.23;2.20;;;;;;;9.19;100.00;100696.75;5020669;28;20037;-72
2024/01/24 00:33:14;;;;;;;12.68;2.22;;;;;;;9.19;100.00;100682.66;5019137;28;20096;-73
2024/01/24 00:35:59;;;;;;;19.63;2.33;;;;;;;9.17;100.00;100697.72;5009248;28;20044;-75
2024/01/24 00:38:45;;;;;;;12.32;2.47;;;;;;;9.15;100.00;100720.72;5022341;28;20048;-75
2024/01/24 00:41:31;;;;;;;13.75;2.40;;;;;;;9.15;100.00;100720.72;5010197;28;20480;-75
2024/01/24 00:44:16;;;;;;;13.95;2.00;;;;;;;9.16;100.00;100711.84;5020702;28;20044;-73
2024/01/24 00:47:02;;;;;;;7.70;1.95;;;;;;;9.15;100.00;100674.00;5029428;28;20124;-74
2024/01/24 00:49:48;;;;;;;16.20;2.97;;;;;;;9.16;100.00;100699.50;5017584;28;20041;-74
2024/01/24 00:52:34;;;;;;;16.85;2.63;;;;;;;9.15;100.00;100683.72;5017688;28;20049;-73
2024/01/24 00:55:22;;;;;;;16.98;2.95;;;;;;;9.15;100.00;100681.09;5018385;28;20033;-76
2024/01/24 00:58:08;;;;;;;12.27;2.03;;;;;;;9.13;100.00;100665.31;5015000;28;20041;-74
2024/01/24 01:00:53;;;;;;;14.38;2.15;;;;;;;9.13;100.00;100696.13;5013136;28;20049;-72
2024/01/24 01:03:39;;;;;;;9.15;2.17;;;;;;;9.15;100.00;100689.00;5016832;28;20424;-71
2024/01/24 01:06:26;;;;;;;15.30;2.97;;;;;;;9.17;100.00;100676.59;5028965;28;20472;-72
2024/01/24 01:09:11;;;;;;;17.23;2.67;;;;;;;9.17;100.00;100676.59;5021373;28;20124;-72
2024/01/24 01:11:57;;;;;;;9.10;1.90;;;;;;;9.19;100.00;100683.53;5022254;28;20451;-72
2024/01/24 01:14:43;;;;;;;10.45;2.03;;;;;;;9.20;100.00;100677.31;5022720;28;20038;-74
2024/01/24 01:17:34;;;;;;;10.77;1.88;;;;;;;9.28;100.00;100684.06;5024577;28;20153;-75
2024/01/24 01:20:19;;;;;;;12.13;2.30;;;;;;;9.33;100.00;100703.22;5018175;28;20128;-74
2024/01/24 01:23:08;;;;;;;10.38;2.50;;;;;;;9.34;100.00;100692.59;5021810;28;20041;-76
2024/01/24 01:25:53;;;;;;;11.73;2.35;;;;;;;9.40;100.00;100678.25;5021434;28;20071;-76
2024/01/24 01:28:41;;;;;;;7.10;1.50;;;;;;;9.46;100.00;100720.28;5015798;28;20049;-74
2024/01/24 01:31:27;;;;;;;7.93;1.48;;;;;;;9.49;100.00;100714.00;5010703;28;20056;-70
2024/01/24 01:34:13;;;;;;;7.35;1.70;;;;;;;9.53;100.00;100715.56;5009133;28;20033;-72
2024/01/24 01:37:01;;;;;;;8.50;1.75;;;;;;;9.59;100.00;100706.53;5013222;28;20041;-70
2024/01/24 01:39:50;;;;;;;9.20;1.92;;;;;;;9.63;100.00;100716.03;5017639;28;20037;-73
2024/01/24 01:42:36;;;;;;;8.38;1.38;;;;;;;9.65;100.00;100715.03;5013848;28;20049;-71
2024/01/24 01:45:23;;;;;;;8.48;1.98;;;;;;;9.69;100.00;100730.78;5014587;28;20541;-74
2024/01/24 01:48:11;;;;;;;11.40;1.48;;;;;;;9.69;100.00;100709.63;5016230;28;20504;-72
2024/01/24 01:50:57;;;;;;;9.52;1.83;;;;;;;9.67;100.00;100701.75;5002910;28;20120;-72
2024/01/24 01:53:44;;;;;;;6.97;1.85;;;;;;;9.70;100.00;100690.19;5018778;28;20072;-73
2024/01/24 01:56:30;;;;;;;8.55;1.92;;;;;;;9.70;100.00;100706.06;5018481;28;20114;-73
2024/01/24 01:59:15;;;;;;;5.75;1.90;;;;;;;9.71;100.00;100703.34;5018489;28;20179;-73
2024/01/24 02:02:03;;;;;;;6.75;1.70;;;;;;;9.73;100.00;100711.19;5016919;28;20041;-72
2024/01/24 02:04:49;;;;;;;6.68;1.80;;;;;;;9.71;100.00;100702.50;5020521;28;20331;-72
2024/01/24 02:07:38;;;;;;;10.68;1.70;;;;;;;9.68;100.00;100687.63;5014139;28;20052;-73
2024/01/24 02:10:24;;;;;;;9.43;1.75;;;;;;;9.64;100.00;100671.03;5017520;28;20785;-73
2024/01/24 02:13:11;;;;;;;13.65;1.95;;;;;;;9.59;100.00;100704.72;5016401;28;20049;-73
2024/01/24 02:16:08;;;;;;;6.93;1.73;;;;;;;9.56;100.00;100678.44;5012657;28;20045;-72
2024/01/24 02:18:53;;;;;;;10.70;1.75;;;;;;;9.56;100.00;100683.75;5001033;28;22040;-71
2024/01/24 02:21:39;;;;;;;5.60;1.38;;;;;;;9.54;100.00;100668.88;5017317;28;20041;-74
2024/01/24 02:24:25;;;;;;;5.70;1.48;;;;;;;9.50;100.00;100678.72;5020326;28;20503;-75
2024/01/24 02:27:11;;;;;;;8.10;2.17;;;;;;;9.47;100.00;100684.13;5004951;28;20037;-72
2024/01/24 02:29:57;;;;;;;11.13;1.58;;;;;;;9.43;100.00;100703.69;5021846;28;20076;-73
2024/01/24 02:32:43;;;;;;;7.53;1.83;;;;;;;9.43;100.00;100708.97;5016819;28;20053;-71
2024/01/24 02:35:29;;;;;;;9.63;1.60;;;;;;;9.41;100.00;100713.47;5012953;28;21111;-74
2024/01/24 02:38:15;;;;;;;8.13;1.70;;;;;;;9.35;100.00;100686.38;5025297;28;20037;-73
2024/01/24 02:41:01;;;;;;;8.82;1.75;;;;;;;9.31;100.00;100695.34;5014203;28;20064;-72
2024/01/24 02:43:47;;;;;;;10.35;1.83;;;;;;;9.27;100.00;100696.44;5015010;28;20182;-72
2024/01/24 02:46:33;;;;;;;11.20;2.45;;;;;;;9.24;100.00;100715.91;5000293;28;20029;-74
2024/01/24 02:49:19;;;;;;;8.75;2.00;;;;;;;9.25;100.00;100692.97;5005519;28;20459;-71
2024/01/24 02:52:05;;;;;;;8.13;1.52;;;;;;;9.24;100.00;100673.63;5017354;28;20041;-73
2024/01/24 02:54:51;;;;;;;8.02;1.88;;;;;;;9.21;100.00;100705.44;5001374;28;20045;-72
2024/01/24 02:57:41;;;;;;;14.43;2.22;;;;;;;9.21;100.00;100717.81;5017743;28;20029;-74
2024/01/24 03:00:29;;;;;;;11.00;2.50;;;;;;;9.20;100.00;100709.03;5005456;28;20053;-72
2024/01/24 03:03:15;;;;;;;10.60;2.45;;;;;;;9.19;100.00;100691.47;5016453;28;20044;-71
2024/01/24 03:06:01;;;;;;;10.80;2.25;;;;;;;9.15;100.00;100700.41;4996939;28;20041;-72
2024/01/24 03:08:56;;;;;;;12.38;2.08;;;;;;;9.12;100.00;100711.13;5014302;28;20041;-71
2024/01/24 03:11:42;;;;;;;12.30;2.17;;;;;;;9.13;100.00;100718.13;5016496;28;20056;-72
2024/01/24 03:14:28;;;;;;;11.48;2.15;;;;;;;9.10;100.00;100734.94;5018837;28;20045;-73
2024/01/24 03:17:13;;;;;;;9.70;2.00;;;;;;;9.08;100.00;100722.72;5015032;28;20053;-75
2024/01/24 03:19:59;;;;;;;10.43;3.08;;;;;;;9.06;100.00;100714.84;5015730;28;20053;-72
2024/01/24 03:22:45;;;;;;;13.30;2.83;;;;;;;9.07;100.00;100735.09;5016448;28;20022;-72
2024/01/24 03:25:31;;;;;;;10.15;2.13;;;;;;;9.05;100.00;100731.63;5018705;28;20052;-72
2024/01/24 03:28:16;;;;;;;14.15;2.35;;;;;;;9.06;100.00;100737.78;5018551;28;20042;-73
2024/01/24 03:31:21;;;;;;;;;;;;;;;;;;;;;
2024/01/24 03:34:07;;;;;;;10.02;2.63;;;;;;;8.99;100.00;100738.97;5015148;28;20147;-71
2024/01/24 03:36:53;;;;;;;9.30;2.15;;;;;;;8.98;100.00;100735.44;5013263;28;20099;-71
2024/01/24 03:39:40;;;;;;;10.43;2.15;;;;;;;8.99;100.00;100720.47;5018006;28;20053;-72
2024/01/24 03:42:37;;;;;;;9.93;2.22;;;;;;;9.01;100.00;100724.78;5019101;28;20130;-75
2024/01/24 03:45:23;;;;;;;11.27;2.10;;;;;;;9.03;100.00;100722.91;5017554;28;20047;-71
2024/01/24 03:48:12;;;;;;;16.52;2.75;;;;;;;9.07;100.00;100719.25;5019216;28;20105;-73
2024/01/24 03:50:58;;;;;;;10.45;1.90;;;;;;;9.07;100.00;100740.38;5010388;28;20051;-73
2024/01/24 03:53:44;;;;;;;14.38;2.10;;;;;;;9.08;100.00;100725.38;5014078;28;20052;-73
2024/01/24 03:56:30;;;;;;;13.77;2.28;;;;;;;9.08;100.00;100731.53;5002023;28;20037;-75
2024/01/24 03:59:15;;;;;;;16.73;2.75;;;;;;;9.13;100.00;100723.41;5012820;28;20128;-71
2024/01/24 04:02:01;;;;;;;9.38;2.22;;;;;;;9.14;100.00;100732.19;5010280;28;20115;-74
2024/01/24 04:04:47;;;;;;;12.00;2.70;;;;;;;9.15;100.00;100731.28;5012280;28;20040;-75
2024/01/24 04:07:33;;;;;;;15.82;2.55;;;;;;;9.16;100.00;100727.69;5014260;28;20057;-75
2024/01/24 04:10:19;;;;;;;14.55;2.78;;;;;;;9.15;100.00;100753.25;5018624;28;20374;-72
2024/01/24 04:13:05;;;;;;;14.27;2.50;;;;;;;9.15;100.00;100770.91;5012231;28;21983;-75
2024/01/24 04:15:52;;;;;;;13.48;2.45;;;;;;;9.16;100.00;100772.59;5012705;28;20420;-73
2024/01/24 04:18:40;;;;;;;17.77;2.80;;;;;;;9.08;100.00;100763.22;5013040;28;20037;-73
2024/01/24 04:21:27;;;;;;;16.15;2.30;;;;;;;8.93;100.00;100785.81;5014190;28;20067;-74
2024/01/24 04:24:16;;;;;;;17.17;3.22;;;;;;;8.78;100.00;100771.41;5015763;28;20116;-75
2024/01/24 04:27:02;;;;;;;18.08;2.80;;;;;;;8.68;100.00;100763.00;5016959;28;20041;-75
2024/01/24 04:29:48;;;;;;;10.05;2.08;;;;;;;8.56;100.00;100774.91;5014845;28;20060;-73
2024/01/24 04:32:34;;;;;;;20.75;3.13;;;;;;;8.49;100.00;100772.53;5018085;28;20033;-72
2024/01/24 04:35:20;;;;;;;16.25;3.05;;;;;;;8.43;100.00;100792.94;5013563;28;20045;-74
2024/01/24 04:38:06;;;;;;;17.52;3.33;;;;;;;8.42;100.00;100785.09;5016105;28;20038;-71
2024/01/24 04:40:51;;;;;;;17.48;3.25;;;;;;;8.35;100.00;100789.75;5012408;28;20062;-72
2024/01/24 04:43:38;;;;;;;21.33;3.30;;;;;;;8.31;100.00;100803.06;5014770;28;21991;-73
2024/01/24 04:46:24;;;;;;;17.42;2.72;;;;;;;8.31;100.00;100797.78;5014394;28;20037;-72
2024/01/24 04:49:11;;;;;;;21.02;3.45;;;;;;;8.35;100.00;100791.50;5018148;28;20037;-72
2024/01/24 04:51:56;;;;;;;15.88;3.17;;;;;;;8.39;100.00;100795.75;5015162;28;20104;-72
2024/01/24 04:54:42;;;;;;;16.83;3.10;;;;;;;8.43;100.00;100814.06;5014973;28;20045;-72
2024/01/24 04:57:28;;;;;;;22.27;3.38;;;;;;;8.46;100.00;100796.38;5014146;28;20097;-75
2024/01/24 05:00:14;;;;;;;16.08;3.10;;;;;;;8.43;100.00;100815.81;5016966;28;20048;-73
2024/01/24 05:03:00;;;;;;;19.77;3.83;;;;;;;8.46;100.00;100807.81;5015324;28;20045;-71
2024/01/24 05:05:49;;;;;;;21.67;3.45;;;;;;;8.45;100.00;100816.66;5020834;28;20048;-72
2024/01/24 05:08:34;;;;;;;21.65;4.05;;;;;;;8.45;100.00;100819.28;5020916;28;21018;-74
2024/01/24 05:11:20;;;;;;;29.67;4.38;;;;;;;8.46;100.00;100823.63;5021722;28;20041;-72
2024/01/24 05:14:06;;;;;;;21.88;3.17;;;;;;;8.46;100.00;100830.69;5019891;28;20041;-72
2024/01/24 05:16:52;;;;;;;18.08;3.75;;;;;;;8.43;100.00;100836.91;5015083;28;21073;-73
2024/01/24 05:19:38;;;;;;;25.40;3.55;;;;;;;8.41;100.00;100846.69;5014907;28;20037;-75
2024/01/24 05:22:23;;;;;;;25.98;3.60;;;;;;;8.40;100.00;100834.41;5018658;28;20116;-72
2024/01/24 05:25:09;;;;;;;19.67;3.65;;;;;;;8.37;100.00;100826.59;5020597;28;21825;-74
2024/01/24 05:27:55;;;;;;;24.83;3.28;;;;;;;8.33;100.00;100831.13;5017484;28;20041;-73
2024/01/24 05:30:43;;;;;;;21.08;3.58;;;;;;;8.28;100.00;100840.97;5011709;28;20431;-72
2024/01/24 05:33:29;;;;;;;22.13;3.63;;;;;;;8.23;100.00;100843.78;5018294;28;20038;-74
2024/01/24 05:36:15;;;;;;;23.65;3.78;;;;;;;8.16;100.00;100858.09;5019572;28;20038;-74
2024/01/24 05:39:01;;;;;;;20.48;4.03;;;;;;;8.15;100.00;100872.19;5020594;28;20045;-71
2024/01/24 05:41:47;;;;;;;17.98;3.22;;;;;;;8.14;100.00;100873.13;5018411;28;20055;-73
2024/01/24 05:44:34;;;;;;;22.80;4.20;;;;;;;8.13;100.00;100887.22;5002312;28;20044;-74
2024/01/24 05:47:22;;;;;;;19.48;3.08;;;;;;;8.10;100.00;100900.50;5015294;28;20052;-74
2024/01/24 05:50:15;;;;;;;20.27;3.35;;;;;;;8.09;100.00;100899.66;5017455;28;20044;-74
2024/01/24 05:53:00;;;;;;;19.08;3.58;;;;;;;8.06;100.00;100909.44;5017846;28;20124;-76
2024/01/24 05:55:48;;;;;;;20.35;3.90;;;;;;;8.07;100.00;100904.09;4993034;28;20033;-77
2024/01/24 05:58:36;;;;;;;20.50;3.80;;;;;;;8.06;100.00;100899.75;5019930;28;20049;-77
2024/01/24 06:01:25;;;;;;;13.80;2.88;;;;;;;8.07;100.00;100905.91;5018425;28;20068;-77
2024/01/24 06:04:11;;;;;;;20.08;3.65;;;;;;;8.05;100.00;100886.63;5030087;28;20037;-75
2024/01/24 06:07:00;;;;;;;20.90;4.10;;;;;;;8.03;100.00;100905.13;5015202;28;20045;-75
2024/01/24 06:09:46;;;;;;;18.75;3.75;;;;;;;7.98;100.00;100910.56;5015327;28;20034;-75
2024/01/24 06:12:31;;;;;;;21.10;3.80;;;;;;;7.97;100.00;100905.34;5011684;28;20079;-75
2024/01/24 06:15:18;;;;;;;23.73;4.40;;;;;;;7.96;100.00;100909.75;5015452;28;20206;-75
2024/01/24 06:18:04;;;;;;;27.23;4.80;;;;;;;7.94;100.00;100924.75;5001973;28;20044;-77
2024/01/24 06:20:52;;;;;;;30.58;4.20;;;;;;;7.89;100.00;100918.75;5019040;28;20041;-77
2024/01/24 06:23:41;;;;;;;27.50;5.60;;;;;;;7.86;100.00;100935.53;5005064;28;20099;-74
2024/01/24 06:26:27;;;;;;;20.52;3.53;;;;;;;7.84;100.00;100933.91;5003901;28;20159;-74
2024/01/24 06:29:13;;;;;;;17.92;3.97;;;;;;;7.80;100.00;100940.16;5011248;28;20041;-73
2024/01/24 06:31:59;;;;;;;16.95;3.72;;;;;;;7.76;100.00;100955.22;5009957;28;20063;-74
2024/01/24 06:34:45;;;;;;;28.77;3.78;;;;;;;7.77;100.00;100963.97;5012519;28;20040;-75
2024/01/24 06:37:32;;;;;;;20.77;3.72;;;;;;;7.75;100.00;100954.34;5016027;28;20118;-73
2024/01/24 06:40:19;;;;;;;19.00;3.53;;;;;;;7.73;100.00;100972.00;5018708;28;20609;-78
2024/01/24 06:43:09;;;;;;;21.13;3.30;;;;;;;7.73;100.00;100948.28;5003930;28;20488;-77
2024/01/24 06:46:05;;;;;;;15.00;3.38;;;;;;;7.73;100.00;100961.44;4990584;28;20446;-77
2024/01/24 06:48:56;;;;;;;19.67;4.15;;;;;;;7.72;100.00;100962.34;4990101;28;20854;-76
2024/01/24 06:51:42;;;;;;;21.52;4.85;;;;;;;7.71;100.00;100965.91;4987098;28;21433;-77
2024/01/24 06:54:28;;;;;;;27.60;3.90;;;;;;;7.75;100.00;100948.22;4973252;28;21107;-75
2024/01/24 06:57:13;;;;;;;20.90;3.35;;;;;;;7.73;100.00;100956.19;4983002;28;20034;-77
2024/01/24 06:59:59;;;;;;;26.92;3.67;;;;;;;7.71;100.00;100973.81;4981392;28;20504;-75
2024/01/24 07:02:45;;;;;;;23.05;3.47;;;;;;;7.72;100.00;100979.94;4985876;28;20051;-73
2024/01/24 07:05:31;;;;;;;19.75;3.83;;;;;;;7.72;100.00;100996.63;5002135;28;20030;-77
2024/01/24 07:08:16;;;;;;;17.67;3.47;;;;;;;7.73;100.00;100992.19;4981368;28;20033;-76
2024/01/24 07:11:03;;;;;;;21.27;3.55;;;;;;;7.69;100.00;100977.41;5002463;28;20088;-71
2024/01/24 07:13:48;;;;;;;22.83;4.18;;;;;;;7.68;100.00;100989.72;4998577;28;20612;-72
2024/01/24 07:16:35;;;;;;;20.17;3.67;;;;;;;7.71;100.00;101010.72;4998970;28;20045;-74
2024/01/24 07:19:23;;;;;;;20.23;4.40;;;;;;;7.70;100.00;101014.25;4971997;28;20315;-76
2024/01/24 07:22:09;;;;;;;20.45;4.32;;;;;;;7.70;100.00;101030.06;4996798;28;20046;-75
2024/01/24 07:24:55;;;;;;;22.95;4.75;;;;;;;7.71;100.00;101016.00;5001012;28;20163;-74
2024/01/24 07:27:41;;;;;;;22.30;3.47;;;;;;;7.67;100.00;101016.97;4983858;28;20045;-75
2024/01/24 07:30:27;;;;;;;21.30;4.05;;;;;;;7.72;100.00;101038.78;4991965;28;20531;-74
2024/01/24 07:33:14;;;;;;;19.92;3.38;;;;;;;7.71;100.00;101029.16;4981866;28;20045;-73
2024/01/24 07:35:59;;;;;;;20.38;4.07;;;;;;;7.73;100.00;101029.97;4983564;28;20042;-75
2024/01/24 07:38:46;;;;;;;24.02;3.95;;;;;;;7.73;100.00;101024.69;4983955;28;20038;-76
2024/01/24 07:41:35;;;;;;;22.50;3.97;;;;;;;7.69;100.00;101049.41;5010363;28;20060;-76
2024/01/24 07:44:21;;;;;;;23.25;3.67;;;;;;;7.66;100.00;101036.34;5024546;28;20029;-75
2024/01/24 07:47:07;;;;;;;21.83;3.42;;;;;;;7.68;100.00;101060.03;5016306;28;20503;-74
2024/01/24 07:49:55;;;;;;;14.80;3.30;;;;;;;7.63;100.00;101046.94;5014299;28;20041;-74
2024/01/24 07:52:42;;;;;;;17.63;3.25;;;;;;;7.64;100.00;101053.09;5015086;28;20429;-75
2024/01/24 07:55:28;;;;;;;24.17;3.65;;;;;;;7.63;100.00;101039.03;5004867;28;20064;-74
2024/01/24 07:58:13;;;;;;;16.85;3.20;;;;;;;7.59;100.00;101063.78;5016620;28;20584;-75
2024/01/24 08:00:59;;;;;;;23.83;4.32;;;;;;;7.56;100.00;101082.31;5011613;28;20815;-75
2024/01/24 08:03:48;;;;;;;24.55;3.90;;;;;;;7.50;100.00;101078.09;5015080;28;20128;-73
2024/01/24 08:06:36;;;;;;;22.02;4.18;;;;;;;7.54;100.00;101092.03;5011041;28;20108;-74
2024/01/24 08:09:22;;;;;;;16.85;3.92;;;;;;;7.57;100.00;101108.63;5009091;28;21103;-75
2024/01/24 08:12:08;;;;;;;17.63;3.83;;;;;;;7.58;100.00;101084.00;5015717;28;20033;-76
2024/01/24 08:14:54;;;;;;;21.08;3.35;;;;;;;7.58;100.00;101098.94;5014351;28;20042;-74
2024/01/24 08:17:42;;;;;;;18.50;3.40;;;;;;;7.52;100.00;101096.50;5013579;28;20056;-76
2024/01/24 08:20:28;;;;;;;25.23;4.55;;;;;;;7.47;100.00;101101.91;5013741;28;20107;-75
2024/01/24 08:23:19;;;;;;;22.02;3.72;;;;;;;7.48;100.00;101109.72;5015301;28;20124;-75
2024/01/24 08:26:04;;;;;;;18.73;3.28;;;;;;;7.50;100.00;101124.63;5014903;28;20064;-75
2024/01/24 08:28:53;;;;;;;17.20;3.28;;;;;;;7.51;100.00;101140.41;5011705;28;20140;-75
2024/01/24 08:31:39;;;;;;;19.63;3.63;;;;;;;7.51;100.00;101147.47;5000584;28;20122;-74
2024/01/24 08:34:24;;;;;;;22.13;3.38;;;;;;;7.50;100.00;101135.16;5013958;28;20080;-73
2024/01/24 08:37:12;;;;;;;26.30;3.75;;;;;;;7.48;100.00;101164.22;5018054;28;20123;-72
2024/01/24 08:39:58;;;;;;;24.15;3.72;;;;;;;7.48;100.00;101167.69;5016440;28;20238;-75
2024/01/24 08:42:44;;;;;;;28.67;3.97;;;;;;;7.48;100.00;101149.25;5021866;28;20079;-75
2024/01/24 08:45:32;;;;;;;26.30;3.83;;;;;;;7.47;100.00;101142.25;5018074;28;20041;-75
2024/01/24 08:48:18;;;;;;;21.75;3.83;;;;;;;7.47;100.00;101163.34;5020018;28;20037;-75
2024/01/24 08:51:04;;;;;;;17.42;3.45;;;;;;;7.49;100.00;101163.31;5018943;28;20091;-75
2024/01/24 08:53:49;;;;;;;17.13;3.42;;;;;;;7.50;100.00;101172.94;5004143;28;20063;-75
2024/01/24 08:56:35;;;;;;;31.45;4.57;;;;;;;7.51;100.00;101176.44;5014110;28;20739;-74
2024/01/24 08:59:21;;;;;;;20.13;3.55;;;;;;;7.51;100.00;101181.72;5011660;28;20029;-76
2024/01/24 09:02:07;;;;;;;20.80;3.85;;;;;;;7.53;100.00;101187.78;5013799;28;20041;-77
2024/01/24 09:04:53;;;;;;;19.98;3.80;;;;;;;7.56;100.00;101182.44;5017768;28;20044;-75
2024/01/24 09:07:39;;;;;;;20.17;3.45;;;;;;;7.59;100.00;101196.38;5016800;28;20049;-73
2024/01/24 09:10:25;;;;;;;23.65;3.67;;;;;;;7.60;100.00;101208.69;5004192;28;20146;-74
2024/01/24 09:13:12;;;;;;;24.55;3.55;;;;;;;7.61;100.00;101214.78;5015273;28;20061;-74
2024/01/24 09:15:58;;;;;;;21.73;3.92;;;;;;;7.64;100.00;101227.03;5020185;28;20045;-75
2024/01/24 09:18:44;;;;;;;23.02;3.63;;;;;;;7.65;100.00;101252.47;5018084;28;20238;-76
2024/01/24 09:21:33;;;;;;;22.92;3.90;;;;;;;7.64;100.00;101246.34;5020468;28;20045;-76
2024/01/24 09:24:24;;;;;;;21.00;3.58;;;;;;;7.65;100.00;101248.09;5021388;28;20046;-77
2024/01/24 09:27:12;;;;;;;27.48;3.83;;;;;;;7.64;100.00;101256.91;5009429;28;20479;-75
2024/01/24 09:29:58;;;;;;;23.70;3.67;;;;;;;7.66;100.00;101276.16;5020674;28;20608;-76
2024/01/24 09:32:46;;;;;;;23.60;4.18;;;;;;;7.74;100.00;101286.50;5018991;28;20033;-74
2024/01/24 09:35:34;;;;;;;19.15;3.65;;;;;;;7.77;100.00;101282.91;5021230;28;20040;-75
2024/01/24 09:38:19;;;;;;;22.70;3.60;;;;;;;7.77;100.00;101299.59;5022431;28;20492;-75
2024/01/24 09:41:10;;;;;;;15.75;3.30;;;;;;;7.77;100.00;101283.78;5020795;28;20057;-73
2024/01/24 09:44:03;;;;;;;14.98;3.63;;;;;;;7.80;100.00;101288.09;5004279;28;20033;-71
2024/01/24 09:46:52;;;;;;;20.90;4.20;;;;;;;7.81;100.00;101282.81;5022232;28;20048;-74
2024/01/24 09:49:43;;;;;;;20.55;3.72;;;;;;;7.83;100.00;101293.28;5021275;28;20060;-76
2024/01/24 09:52:33;;;;;;;20.08;3.53;;;;;;;7.84;100.00;101313.50;5038309;28;20048;-73
2024/01/24 09:55:19;;;;;;;21.50;3.42;;;;;;;7.87;100.00;101316.91;5024958;28;20140;-74
2024/01/24 09:58:05;;;;;;;23.15;3.95;;;;;;;7.89;100.00;101316.84;5010939;28;20117;-75
2024/01/24 10:00:52;;;;;;;26.90;3.65;;;;;;;7.88;100.00;101301.94;5023023;28;20045;-75
2024/01/24 10:03:38;;;;;;;19.27;3.28;;;;;;;7.95;100.00;101335.16;5022258;28;20041;-74
2024/01/24 10:06:24;;;;;;;18.00;3.22;;;;;;;7.95;100.00;101331.66;5023976;28;20037;-76
2024/01/24 10:09:12;;;;;;;20.65;4.47;;;;;;;7.97;100.00;101349.19;5021600;28;20732;-78
2024/01/24 10:11:58;;;;;;;20.40;4.05;;;;;;;8.00;100.00;101321.81;5023523;28;20041;-76
2024/01/24 10:14:47;;;;;;;18.88;3.25;;;;;;;8.00;100.00;101350.84;5021135;28;20037;-73
2024/01/24 10:17:32;;;;;;;21.77;3.35;;;;;;;8.02;100.00;101349.03;5023180;28;20435;-73
2024/01/24 10:20:19;;;;;;;16.90;3.13;;;;;;;8.04;100.00;101351.63;5020932;28;20037;-72
2024/01/24 10:23:04;;;;;;;17.63;4.15;;;;;;;8.03;100.00;101348.13;5020557;28;20483;-74
2024/01/24 10:25:50;;;;;;;20.30;3.90;;;;;;;8.04;100.00;101364.81;5018428;28;20045;-74
2024/01/24 10:28:36;;;;;;;18.38;4.18;;;;;;;8.05;100.00;101361.28;5020948;28;20047;-71
2024/01/24 10:31:26;;;;;;;26.70;3.88;;;;;;;8.02;100.00;101365.72;5004101;28;20041;-77
2024/01/24 10:34:12;;;;;;;16.42;3.35;;;;;;;8.04;100.00;101357.78;5020042;28;20116;-76
2024/01/24 10:37:00;;;;;;;20.27;3.03;;;;;;;8.05;100.00;101395.56;5021115;28;20058;-74
2024/01/24 10:39:47;;;;;;;14.00;3.13;;;;;;;8.05;100.00;101409.59;5020848;28;20365;-73
2024/01/24 10:42:39;;;;;;;18.08;4.00;;;;;;;8.05;100.00;101406.13;5020296;28;20061;-72
2024/01/24 10:45:29;;;;;;;18.52;3.05;;;;;;;8.04;100.00;101418.44;5020749;28;20120;-78
2024/01/24 10:48:19;;;;;;;17.80;3.25;;;;;;;8.06;100.00;101410.47;5023146;28;20048;-75
2024/01/24 10:51:05;;;;;;;19.77;4.60;;;;;;;8.05;100.00;101430.69;5020678;28;21914;-75
2024/01/24 10:53:52;;;;;;;22.98;4.05;;;;;;;8.05;100.00;101425.44;5020436;28;20357;-74
2024/01/24 10:56:40;;;;;;;17.17;3.35;;;;;;;8.07;100.00;101426.25;5018938;28;20080;-72
2024/01/24 10:59:30;;;;;;;18.40;3.38;;;;;;;8.05;100.00;101441.25;5020267;28;20045;-76
2024/01/24 11:02:18;;;;;;;30.65;3.88;;;;;;;8.04;100.00;101444.81;5017203;28;20046;-76
2024/01/24 11:05:05;;;;;;;27.70;4.40;;;;;;;8.04;100.00;101438.66;5030929;28;20034;-75
2024/01/24 11:08:17;;;;;;;21.90;4.20;;;;;;;8.06;100.00;101463.22;5019499;28;20061;-75
2024/01/24 11:11:05;;;;;;;15.02;3.28;;;;;;;8.07;100.00;101457.03;5017951;28;20034;-77
2024/01/24 11:13:52;;;;;;;20.30;3.85;;;;;;;8.12;100.00;101478.91;5015817;28;20033;-73
2024/01/24 11:16:41;;;;;;;20.98;3.97;;;;;;;8.18;100.00;101488.44;5017959;28;20115;-74
2024/01/24 11:19:31;;;;;;;18.98;3.72;;;;;;;8.21;100.00;101507.69;5019235;28;20041;-73
2024/01/24 11:22:35;;;;;;;17.60;3.03;;;;;;;8.26;100.00;101495.25;5015897;28;20108;-75
2024/01/24 11:25:26;;;;;;;;;;;;;;;8.29;100.00;101503.06;5019069;28;20396;-76
2024/01/24 11:28:23;;;;;;;19.13;2.83;;;;;;;8.31;100.00;101521.50;5016935;28;19924;-73
2024/01/24 11:31:13;;;;;;;18.20;2.97;;;;;;;8.33;100.00;101526.75;5019712;28;20057;-74
2024/01/24 11:34:08;;;;;;;22.15;3.53;;;;;;;8.38;100.00;101511.66;5019479;28;20116;-74
2024/01/24 11:36:55;;;;;;;23.60;3.70;;;;;;;8.36;100.00;101535.47;5018589;28;20045;-77
2024/01/24 11:39:41;;;;;;;23.63;3.72;;;;;;;8.38;100.00;101553.88;5018777;28;20041;-72
2024/01/24 11:42:26;;;;;;;23.00;3.35;;;;;;;8.39;100.00;101558.25;5018222;28;20092;-73
2024/01/24 11:45:20;;;;;;;23.70;4.32;;;;;;;8.38;100.00;101543.31;5016370;28;20160;-80
2024/01/24 11:48:08;;;;;;;20.92;3.88;;;;;;;8.35;100.00;101557.47;5020614;28;20037;-78
2024/01/24 11:50:58;;;;;;;18.55;2.85;;;;;;;8.34;100.00;101566.28;5021547;28;20045;-74
2024/01/24 11:53:44;;;;;;;17.35;3.42;;;;;;;8.34;100.00;101570.69;5019753;28;20124;-75
2024/01/24 11:56:34;;;;;;;18.35;3.50;;;;;;;8.33;100.00;101576.88;5018031;28;20123;-76
2024/01/24 11:59:21;;;;;;;18.77;3.13;;;;;;;8.29;100.00;101605.97;5018322;28;20045;-79
2024/01/24 12:02:09;;;;;;;23.90;3.67;;;;;;;8.29;100.00;101584.84;5019382;28;20504;-73
2024/01/24 12:04:58;;;;;;;19.35;3.75;;;;;;;8.30;100.00;101604.19;5004197;28;20029;-75
2024/01/24 12:07:44;;;;;;;15.05;3.35;;;;;;;8.28;100.00;101619.19;5018190;28;20034;-75
2024/01/24 12:10:32;;;;;;;18.67;3.42;;;;;;;8.29;100.00;101620.94;5003302;28;20113;-76
2024/01/24 12:13:20;;;;;;;21.25;3.92;;;;;;;8.26;100.00;101634.19;5021775;28;20558;-77
2024/01/24 12:16:08;;;;;;;16.77;3.50;;;;;;;8.26;100.00;101628.91;5007386;28;20301;-77
2024/01/24 12:18:55;;;;;;;21.55;4.30;;;;;;;8.24;100.00;101636.84;5020367;28;20042;-76
2024/01/24 12:21:40;;;;;;;12.20;2.88;;;;;;;8.26;100.00;101648.25;5014721;28;20045;-75
2024/01/24 12:24:26;;;;;;;15.52;3.10;;;;;;;8.28;100.00;101657.00;5025029;28;20029;-74
2024/01/24 12:27:12;;;;;;;20.25;3.47;;;;;;;8.28;100.00;101657.00;5024538;28;20033;-74
2024/01/24 12:29:58;;;;;;;17.65;3.47;;;;;;;8.26;100.00;101665.84;5010021;28;20052;-76
2024/01/24 12:32:45;;;;;;;20.70;3.28;;;;;;;8.24;100.00;101652.69;5022218;28;20052;-75
2024/01/24 12:35:31;;;;;;;15.90;3.22;;;;;;;8.21;100.00;101658.03;5021120;28;20045;-74
2024/01/24 12:38:17;;;;;;;17.73;2.45;;;;;;;8.22;100.00;101670.31;5022803;28;20029;-73
2024/01/24 12:41:03;;;;;;;20.35;3.22;;;;;;;8.19;100.00;101665.13;5022075;28;20061;-72
2024/01/24 12:46:59;;;;;;;22.08;2.90;;;;;;;8.17;100.00;101703.84;5021540;28;20043;-74
2024/01/24 12:49:45;;;;;;;15.63;3.03;;;;;;;8.15;100.00;101700.38;5020947;28;20048;-73
2024/01/24 12:52:31;;;;;;;15.80;3.65;;;;;;;8.17;100.00;101708.25;5023237;28;20044;-77
2024/01/24 12:55:17;;;;;;;17.48;3.47;;;;;;;8.18;100.00;101704.72;5019374;28;20690;-77